sensor_id;sensor_type;location;lat;lon;timestamp;P1;durP1;ratioP1;P2;durP2;ratioP2
65613;SDS011;52283;49.292;10.572;2022-11-15T00:00:43;8.88;;;4.65;;
65613;SDS011;52283;49.292;10.572;2022-11-15T00:03:10;5.80;;;4.10;;
65613;SDS011;52283;49.292;10.572;2022-11-15T00:05:41;5.30;;;3.58;;
65613;SDS011;52283;49.292;10.572;2022-11-15T00:08:07;9.55;;;4.50;;
65613;SDS011;52283;49.292;10.572;2022-11-15T00:10:34;7.38;;;3.97;;
65613;SDS011;52283;49.292;10.572;2022-11-15T00:13:03;5.70;;;4.55;;
65613;SDS011;52283;49.292;10.572;2022-11-15T00:15:31;5.40;;;4.03;;
65613;SDS011;52283;49.292;10.572;2022-11-15T00:17:57;6.28;;;4.88;;
65613;SDS011;52283;49.292;10.572;2022-11-15T00:20:23;9.60;;;4.32;;
65613;SDS011;52283;49.292;10.572;2022-11-15T00:22:51;5.00;;;3.30;;
65613;SDS011;52283;49.292;10.572;2022-11-15T00:25:18;4.63;;;3.45;;
65613;SDS011;52283;49.292;10.572;2022-11-15T00:27:44;10.48;;;3.72;;
65613;SDS011;52283;49.292;10.572;2022-11-15T00:30:11;6.97;;;3.42;;
65613;SDS011;52283;49.292;10.572;2022-11-15T00:32:38;5.65;;;3.70;;
65613;SDS011;52283;49.292;10.572;2022-11-15T00:35:05;6.50;;;3.42;;
65613;SDS011;52283;49.292;10.572;2022-11-15T00:37:31;5.40;;;3.63;;
65613;SDS011;52283;49.292;10.572;2022-11-15T00:39:59;6.88;;;3.78;;
65613;SDS011;52283;49.292;10.572;2022-11-15T00:42:26;6.55;;;2.92;;
65613;SDS011;52283;49.292;10.572;2022-11-15T00:44:52;5.53;;;3.30;;
65613;SDS011;52283;49.292;10.572;2022-11-15T00:47:19;5.13;;;3.30;;
65613;SDS011;52283;49.292;10.572;2022-11-15T00:49:45;3.55;;;3.03;;
65613;SDS011;52283;49.292;10.572;2022-11-15T00:52:11;4.68;;;3.35;;
65613;SDS011;52283;49.292;10.572;2022-11-15T00:54:38;7.93;;;2.92;;
65613;SDS011;52283;49.292;10.572;2022-11-15T00:57:06;3.72;;;2.95;;
65613;SDS011;52283;49.292;10.572;2022-11-15T00:59:32;3.08;;;2.80;;
65613;SDS011;52283;49.292;10.572;2022-11-15T01:01:59;24.63;;;3.97;;
65613;SDS011;52283;49.292;10.572;2022-11-15T01:04:26;4.38;;;3.60;;
65613;SDS011;52283;49.292;10.572;2022-11-15T01:06:52;4.80;;;2.85;;
65613;SDS011;52283;49.292;10.572;2022-11-15T01:09:19;3.83;;;3.28;;
65613;SDS011;52283;49.292;10.572;2022-11-15T01:11:45;6.60;;;3.15;;
65613;SDS011;52283;49.292;10.572;2022-11-15T01:14:13;4.43;;;2.85;;
65613;SDS011;52283;49.292;10.572;2022-11-15T01:16:40;6.35;;;3.40;;
65613;SDS011;52283;49.292;10.572;2022-11-15T01:19:06;5.38;;;3.03;;
65613;SDS011;52283;49.292;10.572;2022-11-15T01:21:33;7.75;;;4.30;;
65613;SDS011;52283;49.292;10.572;2022-11-15T01:23:59;4.43;;;3.63;;
65613;SDS011;52283;49.292;10.572;2022-11-15T01:26:26;6.85;;;3.35;;
65613;SDS011;52283;49.292;10.572;2022-11-15T01:28:52;6.30;;;3.58;;
65613;SDS011;52283;49.292;10.572;2022-11-15T01:31:20;8.25;;;3.75;;
65613;SDS011;52283;49.292;10.572;2022-11-15T01:33:47;4.93;;;3.45;;
65613;SDS011;52283;49.292;10.572;2022-11-15T01:36:15;6.00;;;3.33;;
65613;SDS011;52283;49.292;10.572;2022-11-15T01:38:42;4.00;;;2.72;;
65613;SDS011;52283;49.292;10.572;2022-11-15T01:41:14;5.70;;;3.60;;
65613;SDS011;52283;49.292;10.572;2022-11-15T01:43:42;6.30;;;2.85;;
65613;SDS011;52283;49.292;10.572;2022-11-15T01:46:14;5.45;;;2.92;;
65613;SDS011;52283;49.292;10.572;2022-11-15T01:48:50;4.88;;;3.55;;
65613;SDS011;52283;49.292;10.572;2022-11-15T01:51:20;3.95;;;2.97;;
65613;SDS011;52283;49.292;10.572;2022-11-15T01:53:50;8.90;;;3.00;;
65613;SDS011;52283;49.292;10.572;2022-11-15T01:56:21;3.72;;;2.60;;
65613;SDS011;52283;49.292;10.572;2022-11-15T01:58:51;4.93;;;3.28;;
65613;SDS011;52283;49.292;10.572;2022-11-15T02:01:19;3.90;;;3.38;;
65613;SDS011;52283;49.292;10.572;2022-11-15T02:03:48;5.78;;;3.88;;
65613;SDS011;52283;49.292;10.572;2022-11-15T02:06:18;4.60;;;3.08;;
65613;SDS011;52283;49.292;10.572;2022-11-15T02:08:45;4.53;;;3.28;;
65613;SDS011;52283;49.292;10.572;2022-11-15T02:11:12;6.25;;;3.45;;
65613;SDS011;52283;49.292;10.572;2022-11-15T02:13:38;8.23;;;3.90;;
65613;SDS011;52283;49.292;10.572;2022-11-15T02:16:07;3.55;;;2.95;;
65613;SDS011;52283;49.292;10.572;2022-11-15T02:18:41;5.10;;;3.53;;
65613;SDS011;52283;49.292;10.572;2022-11-15T02:21:17;7.65;;;4.70;;
65613;SDS011;52283;49.292;10.572;2022-11-15T02:30:04;6.10;;;3.78;;
65613;SDS011;52283;49.292;10.572;2022-11-15T02:32:48;6.35;;;3.97;;
65613;SDS011;52283;49.292;10.572;2022-11-15T02:35:20;7.38;;;3.75;;
65613;SDS011;52283;49.292;10.572;2022-11-15T02:37:56;6.65;;;4.00;;
65613;SDS011;52283;49.292;10.572;2022-11-15T02:40:26;5.03;;;3.92;;
65613;SDS011;52283;49.292;10.572;2022-11-15T02:43:00;6.25;;;3.80;;
65613;SDS011;52283;49.292;10.572;2022-11-15T02:45:53;5.45;;;4.13;;
65613;SDS011;52283;49.292;10.572;2022-11-15T02:48:27;6.38;;;3.45;;
65613;SDS011;52283;49.292;10.572;2022-11-15T02:50:55;6.15;;;3.55;;
65613;SDS011;52283;49.292;10.572;2022-11-15T02:53:23;7.78;;;4.45;;
65613;SDS011;52283;49.292;10.572;2022-11-15T02:55:50;8.77;;;4.50;;
65613;SDS011;52283;49.292;10.572;2022-11-15T02:58:32;7.53;;;4.22;;
65613;SDS011;52283;49.292;10.572;2022-11-15T03:01:18;8.43;;;4.32;;
65613;SDS011;52283;49.292;10.572;2022-11-15T03:03:59;8.77;;;4.90;;
65613;SDS011;52283;49.292;10.572;2022-11-15T03:06:38;6.90;;;4.55;;
65613;SDS011;52283;49.292;10.572;2022-11-15T03:09:13;5.55;;;4.35;;
65613;SDS011;52283;49.292;10.572;2022-11-15T03:11:53;7.38;;;4.75;;
65613;SDS011;52283;49.292;10.572;2022-11-15T03:14:26;8.00;;;5.00;;
65613;SDS011;52283;49.292;10.572;2022-11-15T03:16:58;7.03;;;4.60;;
65613;SDS011;52283;49.292;10.572;2022-11-15T03:19:32;7.45;;;4.70;;
65613;SDS011;52283;49.292;10.572;2022-11-15T03:22:05;8.73;;;4.05;;
65613;SDS011;52283;49.292;10.572;2022-11-15T03:27:04;6.00;;;3.95;;
65613;SDS011;52283;49.292;10.572;2022-11-15T03:29:33;6.72;;;4.65;;
65613;SDS011;52283;49.292;10.572;2022-11-15T03:34:37;7.30;;;5.13;;
65613;SDS011;52283;49.292;10.572;2022-11-15T03:37:07;4.85;;;3.92;;
65613;SDS011;52283;49.292;10.572;2022-11-15T03:39:36;6.18;;;4.60;;
65613;SDS011;52283;49.292;10.572;2022-11-15T03:42:04;6.22;;;4.28;;
65613;SDS011;52283;49.292;10.572;2022-11-15T03:44:44;6.45;;;3.60;;
65613;SDS011;52283;49.292;10.572;2022-11-15T03:47:20;7.95;;;3.83;;
65613;SDS011;52283;49.292;10.572;2022-11-15T03:49:50;8.68;;;5.03;;
65613;SDS011;52283;49.292;10.572;2022-11-15T03:52:20;7.00;;;4.45;;
65613;SDS011;52283;49.292;10.572;2022-11-15T03:54:49;7.43;;;4.63;;
65613;SDS011;52283;49.292;10.572;2022-11-15T03:57:16;7.80;;;5.10;;
65613;SDS011;52283;49.292;10.572;2022-11-15T03:59:43;7.63;;;5.20;;
65613;SDS011;52283;49.292;10.572;2022-11-15T04:02:09;9.13;;;4.57;;
65613;SDS011;52283;49.292;10.572;2022-11-15T04:04:37;6.95;;;4.57;;
65613;SDS011;52283;49.292;10.572;2022-11-15T04:07:04;6.50;;;4.50;;
65613;SDS011;52283;49.292;10.572;2022-11-15T04:09:30;10.15;;;4.93;;
65613;SDS011;52283;49.292;10.572;2022-11-15T04:11:57;6.72;;;4.50;;
65613;SDS011;52283;49.292;10.572;2022-11-15T04:14:23;8.75;;;4.40;;
65613;SDS011;52283;49.292;10.572;2022-11-15T04:16:50;9.50;;;5.00;;
65613;SDS011;52283;49.292;10.572;2022-11-15T04:19:16;5.20;;;3.80;;
65613;SDS011;52283;49.292;10.572;2022-11-15T04:22:01;8.75;;;4.65;;
65613;SDS011;52283;49.292;10.572;2022-11-15T04:24:45;6.20;;;4.03;;
65613;SDS011;52283;49.292;10.572;2022-11-15T04:27:12;10.13;;;3.95;;
65613;SDS011;52283;49.292;10.572;2022-11-15T04:29:38;4.97;;;3.58;;
65613;SDS011;52283;49.292;10.572;2022-11-15T04:32:06;5.70;;;4.10;;
65613;SDS011;52283;49.292;10.572;2022-11-15T04:34:33;4.32;;;3.28;;
65613;SDS011;52283;49.292;10.572;2022-11-15T04:37:01;7.05;;;3.85;;
65613;SDS011;52283;49.292;10.572;2022-11-15T04:39:40;6.72;;;3.85;;
65613;SDS011;52283;49.292;10.572;2022-11-15T04:42:07;4.97;;;3.63;;
65613;SDS011;52283;49.292;10.572;2022-11-15T04:44:34;7.18;;;4.18;;
65613;SDS011;52283;49.292;10.572;2022-11-15T04:47:01;7.53;;;3.72;;
65613;SDS011;52283;49.292;10.572;2022-11-15T04:49:27;5.80;;;3.67;;
65613;SDS011;52283;49.292;10.572;2022-11-15T04:51:54;4.00;;;2.95;;
65613;SDS011;52283;49.292;10.572;2022-11-15T04:54:22;5.00;;;3.45;;
65613;SDS011;52283;49.292;10.572;2022-11-15T04:56:48;5.38;;;3.72;;
65613;SDS011;52283;49.292;10.572;2022-11-15T04:59:15;3.70;;;3.30;;
65613;SDS011;52283;49.292;10.572;2022-11-15T05:01:41;4.97;;;3.35;;
65613;SDS011;52283;49.292;10.572;2022-11-15T05:04:07;5.63;;;3.10;;
65613;SDS011;52283;49.292;10.572;2022-11-15T05:06:45;5.00;;;3.28;;
65613;SDS011;52283;49.292;10.572;2022-11-15T05:09:13;5.50;;;3.63;;
65613;SDS011;52283;49.292;10.572;2022-11-15T05:11:41;5.85;;;3.72;;
65613;SDS011;52283;49.292;10.572;2022-11-15T05:14:08;5.38;;;3.50;;
65613;SDS011;52283;49.292;10.572;2022-11-15T05:16:35;4.65;;;3.38;;
65613;SDS011;52283;49.292;10.572;2022-11-15T05:19:01;3.50;;;2.88;;
65613;SDS011;52283;49.292;10.572;2022-11-15T05:21:28;5.60;;;4.00;;
65613;SDS011;52283;49.292;10.572;2022-11-15T05:23:55;4.43;;;3.45;;
65613;SDS011;52283;49.292;10.572;2022-11-15T05:26:21;4.40;;;3.60;;
65613;SDS011;52283;49.292;10.572;2022-11-15T05:28:52;5.68;;;4.20;;
65613;SDS011;52283;49.292;10.572;2022-11-15T05:31:20;5.55;;;3.70;;
65613;SDS011;52283;49.292;10.572;2022-11-15T05:33:48;6.97;;;3.45;;
65613;SDS011;52283;49.292;10.572;2022-11-15T05:36:16;5.07;;;3.20;;
65613;SDS011;52283;49.292;10.572;2022-11-15T05:38:48;5.05;;;3.67;;
65613;SDS011;52283;49.292;10.572;2022-11-15T05:41:15;8.13;;;4.88;;
65613;SDS011;52283;49.292;10.572;2022-11-15T05:43:44;25.80;;;12.75;;
65613;SDS011;52283;49.292;10.572;2022-11-15T05:46:15;31.95;;;15.65;;
65613;SDS011;52283;49.292;10.572;2022-11-15T05:48:43;19.60;;;8.43;;
65613;SDS011;52283;49.292;10.572;2022-11-15T05:51:17;26.15;;;12.60;;
65613;SDS011;52283;49.292;10.572;2022-11-15T05:53:45;21.55;;;11.23;;
65613;SDS011;52283;49.292;10.572;2022-11-15T05:56:12;26.73;;;14.40;;
65613;SDS011;52283;49.292;10.572;2022-11-15T05:58:40;21.48;;;10.80;;
65613;SDS011;52283;49.292;10.572;2022-11-15T06:01:07;11.32;;;5.88;;
65613;SDS011;52283;49.292;10.572;2022-11-15T06:03:35;24.92;;;12.52;;
65613;SDS011;52283;49.292;10.572;2022-11-15T06:06:02;20.42;;;11.13;;
65613;SDS011;52283;49.292;10.572;2022-11-15T06:08:28;21.60;;;11.63;;
65613;SDS011;52283;49.292;10.572;2022-11-15T06:10:55;16.15;;;10.10;;
65613;SDS011;52283;49.292;10.572;2022-11-15T06:13:21;14.82;;;9.20;;
65613;SDS011;52283;49.292;10.572;2022-11-15T06:15:48;14.90;;;8.90;;
65613;SDS011;52283;49.292;10.572;2022-11-15T06:18:14;14.70;;;8.77;;
65613;SDS011;52283;49.292;10.572;2022-11-15T06:20:42;26.38;;;14.27;;
65613;SDS011;52283;49.292;10.572;2022-11-15T06:23:08;14.18;;;8.93;;
65613;SDS011;52283;49.292;10.572;2022-11-15T06:25:35;14.55;;;9.07;;
65613;SDS011;52283;49.292;10.572;2022-11-15T06:28:01;11.13;;;8.10;;
65613;SDS011;52283;49.292;10.572;2022-11-15T06:30:28;11.65;;;6.95;;
65613;SDS011;52283;49.292;10.572;2022-11-15T06:32:58;13.93;;;7.72;;
65613;SDS011;52283;49.292;10.572;2022-11-15T06:35:26;13.93;;;8.02;;
65613;SDS011;52283;49.292;10.572;2022-11-15T06:37:55;10.75;;;7.10;;
65613;SDS011;52283;49.292;10.572;2022-11-15T06:40:22;22.17;;;12.75;;
65613;SDS011;52283;49.292;10.572;2022-11-15T06:42:48;14.63;;;9.60;;
65613;SDS011;52283;49.292;10.572;2022-11-15T06:45:15;13.68;;;8.35;;
65613;SDS011;52283;49.292;10.572;2022-11-15T06:47:45;15.77;;;8.85;;
65613;SDS011;52283;49.292;10.572;2022-11-15T06:50:11;15.93;;;8.38;;
65613;SDS011;52283;49.292;10.572;2022-11-15T06:52:38;13.00;;;7.93;;
65613;SDS011;52283;49.292;10.572;2022-11-15T06:55:07;13.13;;;7.97;;
65613;SDS011;52283;49.292;10.572;2022-11-15T06:57:34;11.32;;;6.85;;
65613;SDS011;52283;49.292;10.572;2022-11-15T07:00:02;14.57;;;7.50;;
65613;SDS011;52283;49.292;10.572;2022-11-15T07:02:28;9.88;;;6.97;;
65613;SDS011;52283;49.292;10.572;2022-11-15T07:04:55;10.23;;;6.13;;
65613;SDS011;52283;49.292;10.572;2022-11-15T07:07:21;14.52;;;7.03;;
65613;SDS011;52283;49.292;10.572;2022-11-15T07:09:48;15.57;;;9.80;;
65613;SDS011;52283;49.292;10.572;2022-11-15T07:12:16;16.02;;;9.07;;
65613;SDS011;52283;49.292;10.572;2022-11-15T07:14:42;22.15;;;9.90;;
65613;SDS011;52283;49.292;10.572;2022-11-15T07:17:08;27.20;;;10.98;;
65613;SDS011;52283;49.292;10.572;2022-11-15T07:19:35;26.95;;;13.55;;
65613;SDS011;52283;49.292;10.572;2022-11-15T07:22:01;30.02;;;14.80;;
65613;SDS011;52283;49.292;10.572;2022-11-15T07:24:28;44.08;;;20.63;;
65613;SDS011;52283;49.292;10.572;2022-11-15T07:26:54;41.22;;;18.50;;
65613;SDS011;52283;49.292;10.572;2022-11-15T07:29:22;35.00;;;16.17;;
65613;SDS011;52283;49.292;10.572;2022-11-15T07:31:49;33.25;;;15.95;;
65613;SDS011;52283;49.292;10.572;2022-11-15T07:34:15;36.90;;;16.85;;
65613;SDS011;52283;49.292;10.572;2022-11-15T07:36:42;25.25;;;13.50;;
65613;SDS011;52283;49.292;10.572;2022-11-15T07:39:08;27.15;;;14.73;;
65613;SDS011;52283;49.292;10.572;2022-11-15T07:41:37;24.90;;;14.20;;
65613;SDS011;52283;49.292;10.572;2022-11-15T07:44:04;24.40;;;12.73;;
65613;SDS011;52283;49.292;10.572;2022-11-15T07:46:32;22.15;;;12.55;;
65613;SDS011;52283;49.292;10.572;2022-11-15T07:48:58;16.80;;;8.75;;
65613;SDS011;52283;49.292;10.572;2022-11-15T07:51:25;9.20;;;5.28;;
65613;SDS011;52283;49.292;10.572;2022-11-15T07:53:51;10.07;;;6.53;;
65613;SDS011;52283;49.292;10.572;2022-11-15T07:56:18;13.05;;;7.40;;
65613;SDS011;52283;49.292;10.572;2022-11-15T07:58:45;8.63;;;4.93;;
65613;SDS011;52283;49.292;10.572;2022-11-15T08:01:12;7.38;;;4.53;;
65613;SDS011;52283;49.292;10.572;2022-11-15T08:03:39;6.18;;;3.22;;
65613;SDS011;52283;49.292;10.572;2022-11-15T08:06:06;8.13;;;4.50;;
65613;SDS011;52283;49.292;10.572;2022-11-15T08:08:32;24.80;;;8.88;;
65613;SDS011;52283;49.292;10.572;2022-11-15T08:10:59;92.15;;;31.23;;
65613;SDS011;52283;49.292;10.572;2022-11-15T08:13:25;56.88;;;23.35;;
65613;SDS011;52283;49.292;10.572;2022-11-15T08:15:56;36.25;;;14.55;;
65613;SDS011;52283;49.292;10.572;2022-11-15T08:18:24;27.83;;;12.15;;
65613;SDS011;52283;49.292;10.572;2022-11-15T08:20:51;27.05;;;12.20;;
65613;SDS011;52283;49.292;10.572;2022-11-15T08:23:18;29.73;;;16.52;;
65613;SDS011;52283;49.292;10.572;2022-11-15T08:25:44;16.42;;;6.88;;
65613;SDS011;52283;49.292;10.572;2022-11-15T08:28:11;9.80;;;5.78;;
65613;SDS011;52283;49.292;10.572;2022-11-15T08:30:38;22.98;;;8.43;;
65613;SDS011;52283;49.292;10.572;2022-11-15T08:33:09;11.43;;;4.40;;
65613;SDS011;52283;49.292;10.572;2022-11-15T08:35:36;6.47;;;3.42;;
65613;SDS011;52283;49.292;10.572;2022-11-15T08:38:04;7.30;;;3.97;;
65613;SDS011;52283;49.292;10.572;2022-11-15T08:40:31;3.75;;;3.28;;
65613;SDS011;52283;49.292;10.572;2022-11-15T08:42:57;22.85;;;12.70;;
65613;SDS011;52283;49.292;10.572;2022-11-15T08:45:27;4.75;;;3.47;;
65613;SDS011;52283;49.292;10.572;2022-11-15T08:47:53;8.60;;;5.88;;
65613;SDS011;52283;49.292;10.572;2022-11-15T08:50:20;5.38;;;3.03;;
65613;SDS011;52283;49.292;10.572;2022-11-15T08:52:46;9.07;;;5.43;;
65613;SDS011;52283;49.292;10.572;2022-11-15T08:55:14;11.40;;;5.75;;
65613;SDS011;52283;49.292;10.572;2022-11-15T08:57:41;7.63;;;3.70;;
65613;SDS011;52283;49.292;10.572;2022-11-15T09:00:08;9.10;;;4.97;;
65613;SDS011;52283;49.292;10.572;2022-11-15T09:02:37;13.65;;;6.65;;
65613;SDS011;52283;49.292;10.572;2022-11-15T09:05:03;13.90;;;6.68;;
65613;SDS011;52283;49.292;10.572;2022-11-15T09:07:31;14.45;;;6.75;;
65613;SDS011;52283;49.292;10.572;2022-11-15T09:09:57;32.25;;;12.50;;
65613;SDS011;52283;49.292;10.572;2022-11-15T09:12:25;19.63;;;8.30;;
65613;SDS011;52283;49.292;10.572;2022-11-15T09:14:52;15.00;;;4.93;;
65613;SDS011;52283;49.292;10.572;2022-11-15T09:17:18;7.53;;;4.45;;
65613;SDS011;52283;49.292;10.572;2022-11-15T09:19:45;5.07;;;2.95;;
65613;SDS011;52283;49.292;10.572;2022-11-15T09:22:11;7.78;;;4.25;;
65613;SDS011;52283;49.292;10.572;2022-11-15T09:24:37;5.50;;;2.60;;
65613;SDS011;52283;49.292;10.572;2022-11-15T09:27:04;3.03;;;2.45;;
65613;SDS011;52283;49.292;10.572;2022-11-15T09:29:32;2.92;;;2.47;;
65613;SDS011;52283;49.292;10.572;2022-11-15T09:31:58;4.32;;;2.38;;
65613;SDS011;52283;49.292;10.572;2022-11-15T09:34:25;2.50;;;1.95;;
65613;SDS011;52283;49.292;10.572;2022-11-15T09:36:51;4.55;;;2.17;;
65613;SDS011;52283;49.292;10.572;2022-11-15T09:39:18;5.47;;;2.25;;
65613;SDS011;52283;49.292;10.572;2022-11-15T09:44:45;3.58;;;2.22;;
65613;SDS011;52283;49.292;10.572;2022-11-15T09:47:33;2.63;;;1.80;;
65613;SDS011;52283;49.292;10.572;2022-11-15T09:50:13;2.50;;;1.85;;
65613;SDS011;52283;49.292;10.572;2022-11-15T09:52:43;3.05;;;2.33;;
65613;SDS011;52283;49.292;10.572;2022-11-15T09:55:11;4.45;;;3.15;;
65613;SDS011;52283;49.292;10.572;2022-11-15T09:57:47;15.18;;;12.70;;
65613;SDS011;52283;49.292;10.572;2022-11-15T10:00:22;12.63;;;9.13;;
65613;SDS011;52283;49.292;10.572;2022-11-15T10:03:08;11.48;;;6.78;;
65613;SDS011;52283;49.292;10.572;2022-11-15T10:05:37;6.15;;;4.88;;
65613;SDS011;52283;49.292;10.572;2022-11-15T10:08:10;4.65;;;4.18;;
65613;SDS011;52283;49.292;10.572;2022-11-15T10:10:49;4.88;;;2.67;;
65613;SDS011;52283;49.292;10.572;2022-11-15T10:13:20;1.40;;;1.30;;
65613;SDS011;52283;49.292;10.572;2022-11-15T10:18:19;2.05;;;1.40;;
65613;SDS011;52283;49.292;10.572;2022-11-15T10:20:54;2.05;;;1.30;;
65613;SDS011;52283;49.292;10.572;2022-11-15T10:25:50;1.67;;;1.48;;
65613;SDS011;52283;49.292;10.572;2022-11-15T10:28:21;1.23;;;0.80;;
65613;SDS011;52283;49.292;10.572;2022-11-15T10:30:54;2.72;;;1.30;;
65613;SDS011;52283;49.292;10.572;2022-11-15T10:33:24;3.00;;;1.05;;
65613;SDS011;52283;49.292;10.572;2022-11-15T10:41:30;1.73;;;1.40;;
65613;SDS011;52283;49.292;10.572;2022-11-15T10:44:02;1.08;;;1.00;;
65613;SDS011;52283;49.292;10.572;2022-11-15T10:46:37;2.00;;;1.30;;
65613;SDS011;52283;49.292;10.572;2022-11-15T10:49:11;1.63;;;1.23;;
65613;SDS011;52283;49.292;10.572;2022-11-15T10:51:40;3.17;;;1.17;;
65613;SDS011;52283;49.292;10.572;2022-11-15T10:54:10;4.38;;;1.20;;
65613;SDS011;52283;49.292;10.572;2022-11-15T10:56:38;1.33;;;0.88;;
65613;SDS011;52283;49.292;10.572;2022-11-15T10:59:12;1.25;;;1.05;;
65613;SDS011;52283;49.292;10.572;2022-11-15T11:01:47;1.70;;;1.00;;
65613;SDS011;52283;49.292;10.572;2022-11-15T11:04:14;1.65;;;1.10;;
65613;SDS011;52283;49.292;10.572;2022-11-15T11:06:47;2.15;;;1.63;;
65613;SDS011;52283;49.292;10.572;2022-11-15T11:09:22;1.40;;;1.30;;
65613;SDS011;52283;49.292;10.572;2022-11-15T11:11:55;8.35;;;1.50;;
65613;SDS011;52283;49.292;10.572;2022-11-15T11:14:22;1.23;;;1.00;;
65613;SDS011;52283;49.292;10.572;2022-11-15T11:16:54;1.20;;;1.10;;
65613;SDS011;52283;49.292;10.572;2022-11-15T11:19:34;1.13;;;1.02;;
65613;SDS011;52283;49.292;10.572;2022-11-15T11:22:17;2.45;;;1.45;;
65613;SDS011;52283;49.292;10.572;2022-11-15T11:24:51;1.63;;;1.25;;
65613;SDS011;52283;49.292;10.572;2022-11-15T11:27:31;3.15;;;1.30;;
65613;SDS011;52283;49.292;10.572;2022-11-15T11:30:09;1.25;;;1.10;;
65613;SDS011;52283;49.292;10.572;2022-11-15T11:35:49;2.08;;;1.30;;
65613;SDS011;52283;49.292;10.572;2022-11-15T11:38:26;2.78;;;1.30;;
65613;SDS011;52283;49.292;10.572;2022-11-15T11:41:05;1.73;;;1.15;;
65613;SDS011;52283;49.292;10.572;2022-11-15T11:43:41;3.15;;;1.27;;
65613;SDS011;52283;49.292;10.572;2022-11-15T11:46:29;1.80;;;1.63;;
65613;SDS011;52283;49.292;10.572;2022-11-15T11:49:15;5.18;;;1.67;;
65613;SDS011;52283;49.292;10.572;2022-11-15T11:51:47;1.70;;;1.10;;
65613;SDS011;52283;49.292;10.572;2022-11-15T11:54:19;1.77;;;1.45;;
65613;SDS011;52283;49.292;10.572;2022-11-15T11:56:48;4.45;;;1.67;;
65613;SDS011;52283;49.292;10.572;2022-11-15T11:59:18;1.90;;;1.50;;
65613;SDS011;52283;49.292;10.572;2022-11-15T12:01:50;3.22;;;2.40;;
65613;SDS011;52283;49.292;10.572;2022-11-15T12:04:18;4.00;;;1.73;;
65613;SDS011;52283;49.292;10.572;2022-11-15T12:06:54;2.55;;;1.65;;
65613;SDS011;52283;49.292;10.572;2022-11-15T12:09:27;2.42;;;1.40;;
65613;SDS011;52283;49.292;10.572;2022-11-15T12:12:00;2.65;;;1.58;;
65613;SDS011;52283;49.292;10.572;2022-11-15T12:14:40;2.28;;;1.13;;
65613;SDS011;52283;49.292;10.572;2022-11-15T12:17:11;5.10;;;1.13;;
65613;SDS011;52283;49.292;10.572;2022-11-15T12:19:39;1.60;;;1.15;;
65613;SDS011;52283;49.292;10.572;2022-11-15T12:22:10;1.13;;;0.70;;
65613;SDS011;52283;49.292;10.572;2022-11-15T12:24:43;4.68;;;1.13;;
65613;SDS011;52283;49.292;10.572;2022-11-15T12:27:16;1.13;;;0.90;;
65613;SDS011;52283;49.292;10.572;2022-11-15T12:29:45;1.17;;;0.60;;
65613;SDS011;52283;49.292;10.572;2022-11-15T12:34:47;41.42;;;13.50;;
65613;SDS011;52283;49.292;10.572;2022-11-15T12:37:48;5.32;;;2.10;;
65613;SDS011;52283;49.292;10.572;2022-11-15T12:40:20;4.47;;;1.10;;
65613;SDS011;52283;49.292;10.572;2022-11-15T12:43:00;1.60;;;1.23;;
65613;SDS011;52283;49.292;10.572;2022-11-15T12:45:36;2.47;;;1.45;;
65613;SDS011;52283;49.292;10.572;2022-11-15T12:51:13;7.35;;;3.00;;
65613;SDS011;52283;49.292;10.572;2022-11-15T12:53:40;25.17;;;9.63;;
65613;SDS011;52283;49.292;10.572;2022-11-15T12:56:20;5.18;;;2.60;;
65613;SDS011;52283;49.292;10.572;2022-11-15T12:58:49;2.58;;;1.88;;
65613;SDS011;52283;49.292;10.572;2022-11-15T13:04:32;4.70;;;1.65;;
65613;SDS011;52283;49.292;10.572;2022-11-15T13:07:00;4.00;;;1.30;;
65613;SDS011;52283;49.292;10.572;2022-11-15T13:12:48;4.32;;;2.05;;
65613;SDS011;52283;49.292;10.572;2022-11-15T13:18:32;1.52;;;1.10;;
65613;SDS011;52283;49.292;10.572;2022-11-15T13:21:01;2.70;;;1.17;;
65613;SDS011;52283;49.292;10.572;2022-11-15T13:23:52;1.70;;;1.00;;
65613;SDS011;52283;49.292;10.572;2022-11-15T13:26:21;4.95;;;1.67;;
65613;SDS011;52283;49.292;10.572;2022-11-15T13:28:48;3.47;;;0.90;;
65613;SDS011;52283;49.292;10.572;2022-11-15T13:31:24;1.48;;;0.80;;
65613;SDS011;52283;49.292;10.572;2022-11-15T13:33:53;4.00;;;1.98;;
65613;SDS011;52283;49.292;10.572;2022-11-15T13:36:23;2.05;;;1.30;;
65613;SDS011;52283;49.292;10.572;2022-11-15T13:38:54;1.27;;;1.10;;
65613;SDS011;52283;49.292;10.572;2022-11-15T13:41:24;4.50;;;1.15;;
65613;SDS011;52283;49.292;10.572;2022-11-15T13:43:52;2.45;;;1.10;;
65613;SDS011;52283;49.292;10.572;2022-11-15T13:46:20;2.10;;;1.25;;
65613;SDS011;52283;49.292;10.572;2022-11-15T13:48:50;2.05;;;1.13;;
65613;SDS011;52283;49.292;10.572;2022-11-15T13:51:19;1.63;;;1.00;;
65613;SDS011;52283;49.292;10.572;2022-11-15T13:53:51;3.75;;;1.67;;
65613;SDS011;52283;49.292;10.572;2022-11-15T13:56:20;1.20;;;0.90;;
65613;SDS011;52283;49.292;10.572;2022-11-15T13:58:48;1.73;;;1.23;;
65613;SDS011;52283;49.292;10.572;2022-11-15T14:01:16;1.45;;;0.93;;
65613;SDS011;52283;49.292;10.572;2022-11-15T14:03:50;11.68;;;4.15;;
65613;SDS011;52283;49.292;10.572;2022-11-15T14:06:20;8.18;;;3.25;;
65613;SDS011;52283;49.292;10.572;2022-11-15T14:08:59;2.70;;;1.10;;
65613;SDS011;52283;49.292;10.572;2022-11-15T14:11:28;2.15;;;1.30;;
65613;SDS011;52283;49.292;10.572;2022-11-15T14:14:13;1.00;;;0.82;;
65613;SDS011;52283;49.292;10.572;2022-11-15T14:16:41;1.00;;;0.77;;
65613;SDS011;52283;49.292;10.572;2022-11-15T14:19:09;2.72;;;1.00;;
65613;SDS011;52283;49.292;10.572;2022-11-15T14:24:40;1.77;;;1.67;;
65613;SDS011;52283;49.292;10.572;2022-11-15T14:27:17;2.70;;;1.25;;
65613;SDS011;52283;49.292;10.572;2022-11-15T14:32:16;1.50;;;1.17;;
65613;SDS011;52283;49.292;10.572;2022-11-15T14:34:44;3.83;;;1.33;;
65613;SDS011;52283;49.292;10.572;2022-11-15T14:37:16;2.10;;;1.08;;
65613;SDS011;52283;49.292;10.572;2022-11-15T14:39:45;3.28;;;1.08;;
65613;SDS011;52283;49.292;10.572;2022-11-15T14:42:12;1.52;;;1.08;;
65613;SDS011;52283;49.292;10.572;2022-11-15T14:44:38;4.07;;;1.92;;
65613;SDS011;52283;49.292;10.572;2022-11-15T14:47:06;1.30;;;1.20;;
65613;SDS011;52283;49.292;10.572;2022-11-15T14:49:33;2.05;;;1.10;;
65613;SDS011;52283;49.292;10.572;2022-11-15T14:51:59;1.50;;;1.15;;
65613;SDS011;52283;49.292;10.572;2022-11-15T14:54:25;1.63;;;1.10;;
65613;SDS011;52283;49.292;10.572;2022-11-15T14:56:52;3.42;;;1.17;;
65613;SDS011;52283;49.292;10.572;2022-11-15T14:59:18;3.72;;;1.13;;
65613;SDS011;52283;49.292;10.572;2022-11-15T15:01:45;2.00;;;1.27;;
65613;SDS011;52283;49.292;10.572;2022-11-15T15:04:12;1.98;;;1.75;;
65613;SDS011;52283;49.292;10.572;2022-11-15T15:06:39;4.32;;;1.30;;
65613;SDS011;52283;49.292;10.572;2022-11-15T15:09:05;4.60;;;1.60;;
65613;SDS011;52283;49.292;10.572;2022-11-15T15:11:32;2.80;;;1.48;;
65613;SDS011;52283;49.292;10.572;2022-11-15T15:13:58;3.17;;;1.75;;
65613;SDS011;52283;49.292;10.572;2022-11-15T15:16:26;4.75;;;1.40;;
65613;SDS011;52283;49.292;10.572;2022-11-15T15:18:53;2.50;;;1.50;;
65613;SDS011;52283;49.292;10.572;2022-11-15T15:21:21;2.35;;;1.80;;
65613;SDS011;52283;49.292;10.572;2022-11-15T15:23:49;2.07;;;1.40;;
65613;SDS011;52283;49.292;10.572;2022-11-15T15:26:16;2.60;;;1.80;;
65613;SDS011;52283;49.292;10.572;2022-11-15T15:28:43;2.67;;;1.50;;
65613;SDS011;52283;49.292;10.572;2022-11-15T15:31:10;1.95;;;1.35;;
65613;SDS011;52283;49.292;10.572;2022-11-15T15:33:36;10.57;;;3.97;;